Annapolis, Washington
Current Conditions -  °F | °C
As of 7:15 AM on Saturday 25 Oct 2014 (Local Time) from KPWT Reporting Station
Overcast Overcast  
Wind Chill:   Ceiling: 10000
Heat Index:   Visibility: 10mi
Dew Point:   Wind: 8mph
Humidity: 100%   Direction: 200°SSW
Pressure: 29.56"   Gusts: NA
Location:  47.5378°N, 122.589°W
Report Text: KPWT 251415Z AUTO 20007KT 10SM SCT075 OVC100 08/08 A2956 RMK AO1
Loading
Personal Weather Stations






























Interactive Weather Map
Tropical Storm Tracking
New forecast layout! Learn more

10-Day Weather Forecast

Advertisements
Track Severe Weather on mobile